Lough Fea, United Kingdom
Current Conditions -  °F | °C
As of 3:50 AM on Friday 19 Dec 2014 (Local Time) from EGAA Reporting Station
Broken Clouds Broken Clouds  
Wind Chill: 32°   Ceiling: 3300
Heat Index: 41°   Visibility: 6mi
Dew Point: 37°   Wind: 18mph
Humidity: 87%   Direction: 240°WSW
Pressure: 29.65"   Gusts: NA
Location:  54.72°N, 6.82°W
Report Text: EGAA 190350Z AUTO 24016KT 9999 SCT021/// SCT027/// BKN033/// 05/03 Q1004
Loading
Personal Weather Stations






























Interactive Weather Map New forecast layout! Learn more

10-Day Weather Forecast

Advertisements
Track Severe Weather on mobile